createdAt,value
2022-11-29T05:11:30.936Z,101020.75
2022-11-29T05:15:14.503Z,101020.75
2022-11-29T05:18:35.676Z,101028.31
2022-11-29T05:21:47.601Z,101025.75
2022-11-29T05:32:33.199Z,101036.13
2022-11-29T05:35:44.964Z,101030.03
2022-11-29T05:39:12.365Z,101025.66
2022-11-29T05:42:28.868Z,101036.09
2022-11-29T05:46:14.476Z,101035.28
2022-11-29T05:49:53.527Z,101033.47
2022-11-29T05:53:06.205Z,101038.69
2022-11-29T05:56:31.022Z,101030.94
2022-11-29T05:59:37.017Z,101034.38
2022-11-29T06:03:03.628Z,101042.16
2022-11-29T06:06:33.423Z,101030.91
2022-11-29T06:09:44.437Z,101037.84
2022-11-29T06:13:08.238Z,101043.87
2022-11-29T06:16:47.824Z,101050.87
2022-11-29T06:20:00.320Z,101056.09
2022-11-29T06:23:17.997Z,101056.97
2022-11-29T06:26:58.315Z,101064.75
2022-11-29T06:30:03.729Z,101059.56
2022-11-29T06:33:17.264Z,101056.97
2022-11-29T06:36:31.768Z,101060.41
2022-11-29T06:39:34.839Z,101059.50
2022-11-29T06:42:37.443Z,101066.50
2022-11-29T06:45:49.147Z,101075.22
2022-11-29T06:49:19.871Z,101067.37
2022-11-29T06:52:43.051Z,101065.62
2022-11-29T06:55:45.554Z,101063.09
2022-11-29T06:58:57.333Z,101063.06
2022-11-29T07:02:14.252Z,101063.03
2022-11-29T07:32:09.472Z,101075.34
2022-11-29T08:01:51.383Z,101094.44
2022-11-29T08:12:50.166Z,101096.25
2022-11-29T08:15:54.589Z,101096.34
2022-11-29T08:18:57.283Z,101087.69
2022-11-29T08:22:00.000Z,101085.94
2022-11-29T08:25:03.257Z,101087.72
2022-11-29T08:28:06.713Z,101082.50
2022-11-29T08:31:11.543Z,101080.87
2022-11-29T08:34:14.317Z,101084.34
2022-11-29T08:37:16.822Z,101089.41
2022-11-29T08:40:19.701Z,101086.91
2022-11-29T08:43:22.385Z,101101.03
2022-11-29T08:46:45.160Z,101092.19
2022-11-29T08:50:04.136Z,101098.16
2022-11-29T08:53:26.170Z,101096.47
2022-11-29T08:59:51.156Z,101088.75
2022-11-29T09:02:53.559Z,101095.72
2022-11-29T09:05:57.614Z,101104.44
2022-11-29T09:09:01.155Z,101098.28
2022-11-29T09:12:07.526Z,101095.63
2022-11-29T09:15:13.221Z,101086.12
2022-11-29T09:18:16.046Z,101092.16
2022-11-29T09:21:18.920Z,101087.84
2022-11-29T09:24:21.942Z,101083.47
2022-11-29T09:27:24.665Z,101079.97
2022-11-29T09:30:29.972Z,101080.81
2022-11-29T09:33:32.689Z,101085.16
2022-11-29T09:36:35.428Z,101079.06
2022-11-29T09:39:38.353Z,101078.22
2022-11-29T09:43:06.220Z,101078.28
2022-11-29T09:46:25.559Z,101084.34
2022-11-29T10:15:23.327Z,101058.47
2022-11-29T10:25:55.181Z,101041.06
2022-11-29T10:32:50.479Z,101048.00
2022-11-29T10:35:57.221Z,101047.16
2022-11-29T10:54:38.679Z,101028.91
2022-11-29T10:58:11.575Z,101027.13
2022-11-29T11:01:16.823Z,101026.25
2022-11-29T11:04:34.009Z,101025.38
2022-11-29T11:07:36.689Z,101028.88
2022-11-29T11:10:41.518Z,101021.94
2022-11-29T11:13:58.455Z,101022.78
2022-11-29T11:17:33.972Z,101021.94
2022-11-29T11:20:40.356Z,101021.91
2022-11-29T11:23:57.705Z,101028.00
2022-11-29T11:27:01.406Z,101031.50
2022-11-29T11:30:07.027Z,101021.88
2022-11-29T11:33:23.985Z,101023.66
2022-11-29T11:36:27.464Z,101028.00
2022-11-29T11:39:29.955Z,101025.41
2022-11-29T11:42:40.506Z,101023.66
2022-11-29T11:45:52.263Z,101023.66
2022-11-29T11:48:55.096Z,101022.78
2022-11-29T11:52:00.245Z,101025.38
2022-11-29T11:55:24.818Z,101021.06
2022-11-29T11:58:54.291Z,101026.28
2022-11-29T12:01:57.073Z,101017.56
2022-11-29T12:05:03.791Z,101017.56
2022-11-29T12:08:13.264Z,101021.06
2022-11-29T12:11:18.725Z,101018.44
2022-11-29T12:14:28.131Z,101016.69
2022-11-29T12:17:44.213Z,101015.81
2022-11-29T12:20:58.338Z,101014.09
2022-11-29T12:24:10.487Z,101018.44
2022-11-29T12:27:15.605Z,101014.94
2022-11-29T12:30:19.581Z,101016.69
2022-11-29T12:33:29.782Z,101017.53
2022-11-29T12:36:50.801Z,101015.78
2022-11-29T12:39:59.298Z,101007.97
2022-11-29T14:03:49.186Z,101005.31
2022-11-29T14:07:26.840Z,101009.69
2022-11-29T14:10:30.433Z,101004.47
2022-11-29T14:21:11.376Z,101002.66
2022-11-29T14:31:51.660Z,101007.94
2022-11-29T14:35:07.722Z,101003.59
2022-11-29T14:38:39.793Z,101000.09
2022-11-29T14:42:18.614Z,101003.59
2022-11-29T14:45:28.784Z,101009.69
2022-11-29T14:48:34.063Z,101001.84
2022-11-29T14:51:37.450Z,101001.00
2022-11-29T14:54:55.766Z,101001.88
2022-11-29T14:57:58.657Z,101001.88
2022-11-29T15:01:09.546Z,101000.97
2022-11-29T15:04:13.220Z,101003.59
2022-11-29T15:07:24.013Z,101001.00
2022-11-29T15:10:31.368Z,101001.84
2022-11-29T15:13:36.907Z,101002.72
2022-11-29T15:16:45.265Z,100998.38
2022-11-29T15:20:21.875Z,101003.59
2022-11-29T15:23:24.430Z,101000.13
2022-11-29T15:26:27.272Z,100991.38
2022-11-29T15:29:31.336Z,101000.97
2022-11-29T15:44:02.257Z,101000.94
2022-11-29T15:47:25.941Z,101005.31
2022-11-29T15:50:33.410Z,101004.44
2022-11-29T15:53:44.205Z,101004.44
2022-11-29T15:56:52.112Z,101005.34
2022-11-29T15:59:59.073Z,101011.47
2022-11-29T16:03:03.503Z,100996.63
2022-11-29T16:06:20.025Z,101003.59
2022-11-29T16:09:38.309Z,100999.25
2022-11-29T16:13:05.222Z,100997.53
2022-11-29T16:16:15.565Z,101008.84
2022-11-29T16:19:25.055Z,101020.19
2022-11-29T16:22:27.619Z,101014.91
2022-11-29T16:25:36.124Z,101009.69
2022-11-29T16:28:46.096Z,101007.09
2022-11-29T16:31:49.082Z,101020.16
2022-11-29T16:34:52.536Z,101022.78
2022-11-29T16:37:55.990Z,101015.81
2022-11-29T16:41:07.508Z,101014.91
2022-11-29T16:44:41.512Z,101020.16
